Houston, Texas
Current Conditions -  °F | °C
As of 5:55 PM on Saturday 25 Oct 2014 (Local Time) from KMCJ Reporting Station
Clear Clear  
Wind Chill: 28°   Ceiling: Unl
Heat Index: 28°   Visibility: 8mi
Dew Point: 10°   Wind: 0mph
Humidity: 32%   Direction: NA
Pressure: 30.06"   Gusts: NA
Location:  29.76°N, 95.37°W
Report Text: KMCJ 252255Z AUTO 00000KT 8SM CLR 28/10 A3006 RMK AO1
Loading
Personal Weather Stations






























Interactive Weather Map
Tropical Storm Tracking
New forecast layout! Learn more

10-Day Weather Forecast

Advertisements
Track Severe Weather on mobile